Platinum, AK

8:07 AM AKDT on October 25, 2014 (GMT -0800)
Dillingham | Change Station
CLOSE
Current Station
Airport
Location: Dillingham,
Elevation: 95 ft
Nearby Weather Stations

Elev 95 ft 59.04 °N, 158.51 °W | Updated 17 minutes ago

Partly Cloudy
Partly Cloudy
19 °F
Feels Like 13 °F
N
5
Wind Variable Wind from NNW

Today
High -- | Low -- °F
--% Chance of Precip.
Yesterday
High -- | Low -- °F
Precip. -- in
9:46 AM 7:11 PM
Waxing Crescent, 3% visible
Pressure 29.96 in
Visibility 10.0 miles
Clouds Few 12000 ft
Windchill 13 °F
Dew Point 19 °F
Humidity 100%
Rainfall 0.00 in
Snow Depth Not available.
UV 0 out of 12
Pollen Not available.
Air Quality Not available.
Flu Activity Local Activity
METAR PADL 251550Z 33004KT 10SM FEW120 M07/M07 A2996

More Conditions Fewer Conditions

Pressure 29.96 in
Visibility 10.0 miles
Clouds Few 12000 ft
Windchill 13 °F
Dew Point 19 °F
Humidity 100%
Rainfall 0.00 in
Snow Depth Not available.
UV 0 out of 12
Pollen Not available.
Air Quality Not available.
Flu Activity Local Activity
METAR PADL 251550Z 33004KT 10SM FEW120 M07/M07 A2996

More Conditions Fewer Conditions

10-Day Weather Forecast

Almanac

Astronomy

Oct. 25, 2014 Rise Set
Actual Time 9:46 AM AKDT 7:11 PM AKDT
Civil Twilight 9:04 AM AKDT 7:53 PM AKDT
Nautical Twilight 8:17 AM AKDT 8:40 PM AKDT
Astronomical Twilight 7:31 AM AKDT 9:27 PM AKDT
Moon 11:58 AM AKDT 8:21 PM AKDT
Length of Visible Light 10h 49m
Length of Day
9h 25m
Tomorrow will be 5m 0s shorter.
Waxing Crescent, 3% of the Moon is Illuminated
Today
Waxing Crescent
Oct 30
First Quarter
Nov 6
Full
Nov 14
Last Quarter
Nov 22
New

Today's Extremes

State Highs State Lows

Community

WunderPhotos

Upload Photos

1,764,884 photos uploaded!

Nearby

Snow Depth

Station Depth Elevation
Port Graham 0 in 300 ft
Mcneil Canyon 1 in 1320 ft
MF Bradley River 0 in 2300 ft
Rocky Point 2 in 500 ft
Cooper Lake 1 in 1200 ft

Earthquake Activity

City Distance Mag. Time & Date
No recent earthquake activity has been reported nearby.
Minimum magnitude displayed is 2.5.

Coastal Water Temperatures

Place Temperature
No Stations Reporting

Nearby Weather Stations